sensor_id;sensor_type;location;lat;lon;timestamp;temperature;humidity
13721;DHT22;6932;51.438;5.470;2022-12-10T00:01:22;8.30;77.20
13721;DHT22;6932;51.438;5.470;2022-12-10T00:03:48;8.30;77.20
13721;DHT22;6932;51.438;5.470;2022-12-10T00:06:17;8.30;77.30
13721;DHT22;6932;51.438;5.470;2022-12-10T00:08:47;8.30;77.30
13721;DHT22;6932;51.438;5.470;2022-12-10T00:11:15;8.30;77.30
13721;DHT22;6932;51.438;5.470;2022-12-10T00:13:43;8.30;77.30
13721;DHT22;6932;51.438;5.470;2022-12-10T00:16:12;8.30;77.40
13721;DHT22;6932;51.438;5.470;2022-12-10T00:18:39;8.30;77.50
13721;DHT22;6932;51.438;5.470;2022-12-10T00:21:07;8.30;77.50
13721;DHT22;6932;51.438;5.470;2022-12-10T00:23:35;8.30;77.50
13721;DHT22;6932;51.438;5.470;2022-12-10T00:26:48;8.30;77.60
13721;DHT22;6932;51.438;5.470;2022-12-10T00:28:57;8.30;77.60
13721;DHT22;6932;51.438;5.470;2022-12-10T00:31:29;8.30;77.50
13721;DHT22;6932;51.438;5.470;2022-12-10T00:33:59;8.30;77.60
13721;DHT22;6932;51.438;5.470;2022-12-10T00:36:35;8.30;77.60
13721;DHT22;6932;51.438;5.470;2022-12-10T00:39:04;8.20;77.60
13721;DHT22;6932;51.438;5.470;2022-12-10T00:41:30;8.20;77.60
13721;DHT22;6932;51.438;5.470;2022-12-10T00:43:56;8.20;77.60
13721;DHT22;6932;51.438;5.470;2022-12-10T00:46:22;8.20;77.60
13721;DHT22;6932;51.438;5.470;2022-12-10T00:48:48;8.20;78.10
13721;DHT22;6932;51.438;5.470;2022-12-10T00:51:17;8.20;77.70
13721;DHT22;6932;51.438;5.470;2022-12-10T00:53:46;8.20;77.80
13721;DHT22;6932;51.438;5.470;2022-12-10T00:56:15;8.20;77.80
13721;DHT22;6932;51.438;5.470;2022-12-10T00:58:43;8.20;77.80
13721;DHT22;6932;51.438;5.470;2022-12-10T01:01:16;8.20;77.70
13721;DHT22;6932;51.438;5.470;2022-12-10T01:03:43;8.20;78.40
13721;DHT22;6932;51.438;5.470;2022-12-10T01:06:11;8.20;77.70
13721;DHT22;6932;51.438;5.470;2022-12-10T01:08:41;8.20;77.80
13721;DHT22;6932;51.438;5.470;2022-12-10T01:11:09;8.20;77.80
13721;DHT22;6932;51.438;5.470;2022-12-10T01:13:37;8.20;77.80
13721;DHT22;6932;51.438;5.470;2022-12-10T01:16:04;8.20;77.80
13721;DHT22;6932;51.438;5.470;2022-12-10T01:18:31;8.20;77.80
13721;DHT22;6932;51.438;5.470;2022-12-10T01:21:06;8.20;77.80
13721;DHT22;6932;51.438;5.470;2022-12-10T01:23:39;8.10;77.70
13721;DHT22;6932;51.438;5.470;2022-12-10T01:26:08;8.10;77.70
13721;DHT22;6932;51.438;5.470;2022-12-10T01:28:37;8.10;77.70
13721;DHT22;6932;51.438;5.470;2022-12-10T01:31:13;8.10;77.70
13721;DHT22;6932;51.438;5.470;2022-12-10T01:33:39;8.10;77.60
13721;DHT22;6932;51.438;5.470;2022-12-10T01:36:11;8.00;77.60
13721;DHT22;6932;51.438;5.470;2022-12-10T01:38:39;8.00;77.70
13721;DHT22;6932;51.438;5.470;2022-12-10T01:41:06;8.00;77.80
13721;DHT22;6932;51.438;5.470;2022-12-10T01:46:19;8.00;77.90
13721;DHT22;6932;51.438;5.470;2022-12-10T01:48:45;8.00;78.00
13721;DHT22;6932;51.438;5.470;2022-12-10T01:51:13;8.00;78.00
13721;DHT22;6932;51.438;5.470;2022-12-10T01:53:39;8.00;78.10
13721;DHT22;6932;51.438;5.470;2022-12-10T01:56:08;8.00;78.00
13721;DHT22;6932;51.438;5.470;2022-12-10T01:58:35;8.00;78.00
13721;DHT22;6932;51.438;5.470;2022-12-10T02:01:08;8.00;78.10
13721;DHT22;6932;51.438;5.470;2022-12-10T02:09:23;7.90;78.20
13721;DHT22;6932;51.438;5.470;2022-12-10T02:17:22;7.90;78.20
13721;DHT22;6932;51.438;5.470;2022-12-10T02:20:03;7.90;78.30
13721;DHT22;6932;51.438;5.470;2022-12-10T02:22:36;7.90;78.40
13721;DHT22;6932;51.438;5.470;2022-12-10T02:25:06;7.90;78.50
13721;DHT22;6932;51.438;5.470;2022-12-10T02:30:31;7.90;78.60
13721;DHT22;6932;51.438;5.470;2022-12-10T02:33:01;7.90;78.60
13721;DHT22;6932;51.438;5.470;2022-12-10T02:35:31;7.90;78.70
13721;DHT22;6932;51.438;5.470;2022-12-10T02:38:05;7.90;78.80
13721;DHT22;6932;51.438;5.470;2022-12-10T02:40:50;7.90;78.90
13721;DHT22;6932;51.438;5.470;2022-12-10T02:43:21;7.90;79.00
13721;DHT22;6932;51.438;5.470;2022-12-10T02:45:50;7.90;79.00
13721;DHT22;6932;51.438;5.470;2022-12-10T02:48:18;7.90;79.00
13721;DHT22;6932;51.438;5.470;2022-12-10T02:50:44;7.90;79.10
13721;DHT22;6932;51.438;5.470;2022-12-10T02:53:10;7.90;79.10
13721;DHT22;6932;51.438;5.470;2022-12-10T02:56:04;7.90;79.10
13721;DHT22;6932;51.438;5.470;2022-12-10T03:04:16;7.90;79.10
13721;DHT22;6932;51.438;5.470;2022-12-10T03:06:54;7.90;79.10
13721;DHT22;6932;51.438;5.470;2022-12-10T03:09:49;7.90;79.10
13721;DHT22;6932;51.438;5.470;2022-12-10T03:12:32;7.90;79.20
13721;DHT22;6932;51.438;5.470;2022-12-10T03:15:05;7.90;79.10
13721;DHT22;6932;51.438;5.470;2022-12-10T03:17:36;7.90;79.20
13721;DHT22;6932;51.438;5.470;2022-12-10T03:20:07;7.90;79.20
13721;DHT22;6932;51.438;5.470;2022-12-10T03:22:37;7.90;79.30
13721;DHT22;6932;51.438;5.470;2022-12-10T03:25:07;7.90;79.30
13721;DHT22;6932;51.438;5.470;2022-12-10T03:27:39;7.90;79.40
13721;DHT22;6932;51.438;5.470;2022-12-10T03:30:07;7.90;79.50
13721;DHT22;6932;51.438;5.470;2022-12-10T03:32:34;7.90;79.60
13721;DHT22;6932;51.438;5.470;2022-12-10T03:35:01;7.90;79.60
13721;DHT22;6932;51.438;5.470;2022-12-10T03:37:28;7.90;79.70
13721;DHT22;6932;51.438;5.470;2022-12-10T03:39:56;7.90;79.60
13721;DHT22;6932;51.438;5.470;2022-12-10T03:42:23;8.00;79.60
13721;DHT22;6932;51.438;5.470;2022-12-10T03:44:50;8.00;79.70
13721;DHT22;6932;51.438;5.470;2022-12-10T03:47:18;8.00;79.60
13721;DHT22;6932;51.438;5.470;2022-12-10T03:49:44;8.00;79.70
13721;DHT22;6932;51.438;5.470;2022-12-10T03:52:11;8.00;79.70
13721;DHT22;6932;51.438;5.470;2022-12-10T03:54:37;8.00;79.70
13721;DHT22;6932;51.438;5.470;2022-12-10T03:57:03;8.00;79.80
13721;DHT22;6932;51.438;5.470;2022-12-10T03:59:29;8.00;79.60
13721;DHT22;6932;51.438;5.470;2022-12-10T04:01:55;8.00;79.60
13721;DHT22;6932;51.438;5.470;2022-12-10T04:04:21;8.00;79.60
13721;DHT22;6932;51.438;5.470;2022-12-10T04:06:47;8.00;79.60
13721;DHT22;6932;51.438;5.470;2022-12-10T04:09:14;8.00;79.70
13721;DHT22;6932;51.438;5.470;2022-12-10T04:11:41;8.00;79.70
13721;DHT22;6932;51.438;5.470;2022-12-10T04:14:09;8.00;79.70
13721;DHT22;6932;51.438;5.470;2022-12-10T04:16:54;8.00;79.60
13721;DHT22;6932;51.438;5.470;2022-12-10T04:19:20;8.00;79.50
13721;DHT22;6932;51.438;5.470;2022-12-10T04:21:47;8.00;79.50
13721;DHT22;6932;51.438;5.470;2022-12-10T04:24:33;8.00;79.50
13721;DHT22;6932;51.438;5.470;2022-12-10T04:29:52;8.00;79.60
13721;DHT22;6932;51.438;5.470;2022-12-10T04:32:18;8.00;79.70
13721;DHT22;6932;51.438;5.470;2022-12-10T04:34:44;8.00;79.80
13721;DHT22;6932;51.438;5.470;2022-12-10T04:37:11;8.00;79.80
13721;DHT22;6932;51.438;5.470;2022-12-10T04:39:38;8.00;79.80
13721;DHT22;6932;51.438;5.470;2022-12-10T04:42:05;8.00;79.90
13721;DHT22;6932;51.438;5.470;2022-12-10T04:44:31;8.00;79.80
13721;DHT22;6932;51.438;5.470;2022-12-10T04:46:57;8.00;79.70
13721;DHT22;6932;51.438;5.470;2022-12-10T04:49:23;8.00;79.60
13721;DHT22;6932;51.438;5.470;2022-12-10T04:51:50;8.00;79.60
13721;DHT22;6932;51.438;5.470;2022-12-10T04:54:16;8.00;79.60
13721;DHT22;6932;51.438;5.470;2022-12-10T04:56:42;8.00;79.60
13721;DHT22;6932;51.438;5.470;2022-12-10T04:59:09;8.00;79.60
13721;DHT22;6932;51.438;5.470;2022-12-10T05:01:35;8.00;79.60
13721;DHT22;6932;51.438;5.470;2022-12-10T05:04:04;8.00;79.70
13721;DHT22;6932;51.438;5.470;2022-12-10T05:06:32;8.00;79.70
13721;DHT22;6932;51.438;5.470;2022-12-10T05:08:59;8.00;79.80
13721;DHT22;6932;51.438;5.470;2022-12-10T05:11:28;8.00;79.80
13721;DHT22;6932;51.438;5.470;2022-12-10T05:13:55;8.00;79.70
13721;DHT22;6932;51.438;5.470;2022-12-10T05:16:23;8.00;79.70
13721;DHT22;6932;51.438;5.470;2022-12-10T05:18:50;8.00;79.60
13721;DHT22;6932;51.438;5.470;2022-12-10T05:21:19;8.00;79.60
13721;DHT22;6932;51.438;5.470;2022-12-10T05:23:47;8.00;79.60
13721;DHT22;6932;51.438;5.470;2022-12-10T05:26:19;8.00;79.60
13721;DHT22;6932;51.438;5.470;2022-12-10T05:28:52;8.00;79.60
13721;DHT22;6932;51.438;5.470;2022-12-10T05:31:22;7.90;79.50
13721;DHT22;6932;51.438;5.470;2022-12-10T05:33:53;7.90;79.50
13721;DHT22;6932;51.438;5.470;2022-12-10T05:36:22;7.90;79.50
13721;DHT22;6932;51.438;5.470;2022-12-10T05:38:51;7.90;79.60
13721;DHT22;6932;51.438;5.470;2022-12-10T05:41:20;7.90;79.60
13721;DHT22;6932;51.438;5.470;2022-12-10T05:43:48;7.90;79.70
13721;DHT22;6932;51.438;5.470;2022-12-10T05:46:21;7.90;79.70
13721;DHT22;6932;51.438;5.470;2022-12-10T05:48:49;7.90;79.80
13721;DHT22;6932;51.438;5.470;2022-12-10T05:51:19;7.90;79.80
13721;DHT22;6932;51.438;5.470;2022-12-10T05:53:51;7.90;79.80
13721;DHT22;6932;51.438;5.470;2022-12-10T05:56:19;7.90;79.80
13721;DHT22;6932;51.438;5.470;2022-12-10T05:58:49;7.90;79.80
13721;DHT22;6932;51.438;5.470;2022-12-10T06:01:19;7.90;79.70
13721;DHT22;6932;51.438;5.470;2022-12-10T06:03:50;7.90;79.80
13721;DHT22;6932;51.438;5.470;2022-12-10T06:06:22;7.90;79.80
13721;DHT22;6932;51.438;5.470;2022-12-10T06:08:50;7.90;79.70
13721;DHT22;6932;51.438;5.470;2022-12-10T06:11:17;7.90;79.70
13721;DHT22;6932;51.438;5.470;2022-12-10T06:13:42;7.90;79.70
13721;DHT22;6932;51.438;5.470;2022-12-10T06:16:10;7.90;79.70
13721;DHT22;6932;51.438;5.470;2022-12-10T06:18:37;7.90;79.70
13721;DHT22;6932;51.438;5.470;2022-12-10T06:21:11;7.90;79.70
13721;DHT22;6932;51.438;5.470;2022-12-10T06:23:40;7.90;79.70
13721;DHT22;6932;51.438;5.470;2022-12-10T06:26:12;7.90;79.80
13721;DHT22;6932;51.438;5.470;2022-12-10T06:28:40;7.90;79.80
13721;DHT22;6932;51.438;5.470;2022-12-10T06:31:07;7.90;79.80
13721;DHT22;6932;51.438;5.470;2022-12-10T06:33:33;7.90;79.90
13721;DHT22;6932;51.438;5.470;2022-12-10T06:35:59;7.90;79.90
13721;DHT22;6932;51.438;5.470;2022-12-10T06:38:27;7.80;79.90
13721;DHT22;6932;51.438;5.470;2022-12-10T06:40:53;7.80;79.90
13721;DHT22;6932;51.438;5.470;2022-12-10T06:43:19;7.90;79.90
13721;DHT22;6932;51.438;5.470;2022-12-10T06:45:45;7.90;79.90
13721;DHT22;6932;51.438;5.470;2022-12-10T06:48:10;7.80;79.90
13721;DHT22;6932;51.438;5.470;2022-12-10T06:50:36;7.90;80.00
13721;DHT22;6932;51.438;5.470;2022-12-10T06:53:03;7.90;80.00
13721;DHT22;6932;51.438;5.470;2022-12-10T06:55:29;7.90;80.20
13721;DHT22;6932;51.438;5.470;2022-12-10T06:57:55;7.80;79.90
13721;DHT22;6932;51.438;5.470;2022-12-10T07:00:21;7.80;79.90
13721;DHT22;6932;51.438;5.470;2022-12-10T07:02:47;7.80;79.90
13721;DHT22;6932;51.438;5.470;2022-12-10T07:05:14;7.90;79.80
13721;DHT22;6932;51.438;5.470;2022-12-10T07:07:39;7.80;79.80
13721;DHT22;6932;51.438;5.470;2022-12-10T07:10:06;7.80;79.80
13721;DHT22;6932;51.438;5.470;2022-12-10T07:12:32;7.80;79.90
13721;DHT22;6932;51.438;5.470;2022-12-10T07:14:58;7.80;79.90
13721;DHT22;6932;51.438;5.470;2022-12-10T07:17:23;7.80;79.90
13721;DHT22;6932;51.438;5.470;2022-12-10T07:19:49;7.80;79.90
13721;DHT22;6932;51.438;5.470;2022-12-10T07:22:15;7.80;79.90
13721;DHT22;6932;51.438;5.470;2022-12-10T07:24:41;7.80;79.90
13721;DHT22;6932;51.438;5.470;2022-12-10T07:27:08;7.80;79.90
13721;DHT22;6932;51.438;5.470;2022-12-10T07:29:35;7.80;79.90
13721;DHT22;6932;51.438;5.470;2022-12-10T07:32:01;7.80;79.80
13721;DHT22;6932;51.438;5.470;2022-12-10T07:34:27;7.80;79.80
13721;DHT22;6932;51.438;5.470;2022-12-10T07:36:52;7.80;79.80
13721;DHT22;6932;51.438;5.470;2022-12-10T07:39:18;7.80;79.80
13721;DHT22;6932;51.438;5.470;2022-12-10T07:41:48;7.70;79.80
13721;DHT22;6932;51.438;5.470;2022-12-10T07:44:24;7.70;79.80
13721;DHT22;6932;51.438;5.470;2022-12-10T07:46:52;7.70;79.80
13721;DHT22;6932;51.438;5.470;2022-12-10T07:49:19;7.70;79.90
13721;DHT22;6932;51.438;5.470;2022-12-10T07:51:46;7.70;79.90
13721;DHT22;6932;51.438;5.470;2022-12-10T07:54:16;7.70;80.00
13721;DHT22;6932;51.438;5.470;2022-12-10T07:56:42;7.70;80.00
13721;DHT22;6932;51.438;5.470;2022-12-10T07:59:08;7.70;80.00
13721;DHT22;6932;51.438;5.470;2022-12-10T08:01:34;7.70;80.30
13721;DHT22;6932;51.438;5.470;2022-12-10T08:04:00;7.70;80.10
13721;DHT22;6932;51.438;5.470;2022-12-10T08:06:27;7.70;80.20
13721;DHT22;6932;51.438;5.470;2022-12-10T08:08:54;7.70;80.20
13721;DHT22;6932;51.438;5.470;2022-12-10T08:11:22;7.70;80.30
13721;DHT22;6932;51.438;5.470;2022-12-10T08:13:48;7.70;80.30
13721;DHT22;6932;51.438;5.470;2022-12-10T08:16:17;7.70;80.40
13721;DHT22;6932;51.438;5.470;2022-12-10T08:18:48;7.80;80.40
13721;DHT22;6932;51.438;5.470;2022-12-10T08:21:17;7.80;80.40
13721;DHT22;6932;51.438;5.470;2022-12-10T08:23:44;7.80;80.40
13721;DHT22;6932;51.438;5.470;2022-12-10T08:26:13;7.70;80.30
13721;DHT22;6932;51.438;5.470;2022-12-10T08:28:41;7.80;80.40
13721;DHT22;6932;51.438;5.470;2022-12-10T08:31:09;7.80;80.40
13721;DHT22;6932;51.438;5.470;2022-12-10T08:33:37;7.80;80.30
13721;DHT22;6932;51.438;5.470;2022-12-10T08:36:05;7.70;80.30
13721;DHT22;6932;51.438;5.470;2022-12-10T08:38:33;7.80;80.30
13721;DHT22;6932;51.438;5.470;2022-12-10T08:41:06;7.80;80.40
13721;DHT22;6932;51.438;5.470;2022-12-10T08:43:33;7.80;80.40
13721;DHT22;6932;51.438;5.470;2022-12-10T08:45:59;7.70;80.40
13721;DHT22;6932;51.438;5.470;2022-12-10T08:48:25;7.70;80.40
13721;DHT22;6932;51.438;5.470;2022-12-10T08:50:51;7.70;80.50
13721;DHT22;6932;51.438;5.470;2022-12-10T08:53:16;7.80;80.60
13721;DHT22;6932;51.438;5.470;2022-12-10T08:55:42;7.70;80.60
13721;DHT22;6932;51.438;5.470;2022-12-10T08:58:09;7.80;80.70
13721;DHT22;6932;51.438;5.470;2022-12-10T09:00:35;7.80;80.70
13721;DHT22;6932;51.438;5.470;2022-12-10T09:03:02;7.80;80.70
13721;DHT22;6932;51.438;5.470;2022-12-10T09:05:28;7.80;80.70
13721;DHT22;6932;51.438;5.470;2022-12-10T09:07:54;7.80;80.70
13721;DHT22;6932;51.438;5.470;2022-12-10T09:10:20;7.80;80.70
13721;DHT22;6932;51.438;5.470;2022-12-10T09:12:47;7.80;80.70
13721;DHT22;6932;51.438;5.470;2022-12-10T09:15:13;7.80;80.80
13721;DHT22;6932;51.438;5.470;2022-12-10T09:17:39;7.80;80.80
13721;DHT22;6932;51.438;5.470;2022-12-10T09:20:05;7.80;80.80
13721;DHT22;6932;51.438;5.470;2022-12-10T09:22:31;7.80;80.80
13721;DHT22;6932;51.438;5.470;2022-12-10T09:24:57;7.80;80.80
13721;DHT22;6932;51.438;5.470;2022-12-10T09:27:23;7.80;80.80
13721;DHT22;6932;51.438;5.470;2022-12-10T09:29:48;7.80;80.70
13721;DHT22;6932;51.438;5.470;2022-12-10T09:32:14;7.80;80.80
13721;DHT22;6932;51.438;5.470;2022-12-10T09:34:40;7.80;80.90
13721;DHT22;6932;51.438;5.470;2022-12-10T09:37:06;7.80;81.00
13721;DHT22;6932;51.438;5.470;2022-12-10T09:39:32;7.80;81.00
13721;DHT22;6932;51.438;5.470;2022-12-10T09:45:29;7.80;81.10
13721;DHT22;6932;51.438;5.470;2022-12-10T09:48:20;7.80;81.10
13721;DHT22;6932;51.438;5.470;2022-12-10T09:53:29;7.80;81.10
13721;DHT22;6932;51.438;5.470;2022-12-10T09:55:58;7.90;81.20
13721;DHT22;6932;51.438;5.470;2022-12-10T09:58:26;7.90;81.20
13721;DHT22;6932;51.438;5.470;2022-12-10T10:03:21;7.80;81.10
13721;DHT22;6932;51.438;5.470;2022-12-10T10:05:49;7.90;81.20
13721;DHT22;6932;51.438;5.470;2022-12-10T10:08:36;7.90;81.20
13721;DHT22;6932;51.438;5.470;2022-12-10T10:11:11;7.90;81.10
13721;DHT22;6932;51.438;5.470;2022-12-10T10:13:55;7.90;81.10
13721;DHT22;6932;51.438;5.470;2022-12-10T10:16:47;7.90;81.00
13721;DHT22;6932;51.438;5.470;2022-12-10T10:19:16;7.90;81.00
13721;DHT22;6932;51.438;5.470;2022-12-10T10:21:48;7.90;81.00
13721;DHT22;6932;51.438;5.470;2022-12-10T10:24:23;7.90;81.10
13721;DHT22;6932;51.438;5.470;2022-12-10T10:26:57;7.90;81.20
13721;DHT22;6932;51.438;5.470;2022-12-10T10:29:27;7.90;81.20
13721;DHT22;6932;51.438;5.470;2022-12-10T10:32:14;7.90;81.30
13721;DHT22;6932;51.438;5.470;2022-12-10T10:34:41;7.90;81.30
13721;DHT22;6932;51.438;5.470;2022-12-10T10:40:00;7.90;81.40
13721;DHT22;6932;51.438;5.470;2022-12-10T10:42:40;7.90;81.40
13721;DHT22;6932;51.438;5.470;2022-12-10T10:48:14;7.90;81.30
13721;DHT22;6932;51.438;5.470;2022-12-10T10:50:46;7.90;81.30
13721;DHT22;6932;51.438;5.470;2022-12-10T10:56:18;8.00;81.40
13721;DHT22;6932;51.438;5.470;2022-12-10T11:01:48;8.00;81.40
13721;DHT22;6932;51.438;5.470;2022-12-10T11:04:23;8.00;81.40
13721;DHT22;6932;51.438;5.470;2022-12-10T11:06:55;8.10;81.30
13721;DHT22;6932;51.438;5.470;2022-12-10T11:09:28;8.00;81.20
13721;DHT22;6932;51.438;5.470;2022-12-10T11:12:06;8.00;81.10
13721;DHT22;6932;51.438;5.470;2022-12-10T11:14:46;8.00;81.10
13721;DHT22;6932;51.438;5.470;2022-12-10T11:19:53;8.00;81.10
13721;DHT22;6932;51.438;5.470;2022-12-10T11:22:24;8.00;81.20
13721;DHT22;6932;51.438;5.470;2022-12-10T11:24:53;8.00;81.20
13721;DHT22;6932;51.438;5.470;2022-12-10T11:30:25;8.00;81.20
13721;DHT22;6932;51.438;5.470;2022-12-10T11:36:38;8.10;81.00
13721;DHT22;6932;51.438;5.470;2022-12-10T11:39:30;8.00;80.80
13721;DHT22;6932;51.438;5.470;2022-12-10T11:50:53;8.00;81.00
13721;DHT22;6932;51.438;5.470;2022-12-10T11:56:38;8.00;81.10
13721;DHT22;6932;51.438;5.470;2022-12-10T12:02:39;8.00;81.70
13721;DHT22;6932;51.438;5.470;2022-12-10T12:11:47;8.00;81.20
13721;DHT22;6932;51.438;5.470;2022-12-10T12:17:17;8.10;81.20
13721;DHT22;6932;51.438;5.470;2022-12-10T12:19:57;8.10;81.20
13721;DHT22;6932;51.438;5.470;2022-12-10T12:22:36;8.10;81.20
13721;DHT22;6932;51.438;5.470;2022-12-10T12:25:15;8.10;81.30
13721;DHT22;6932;51.438;5.470;2022-12-10T12:27:51;8.10;81.20
13721;DHT22;6932;51.438;5.470;2022-12-10T12:30:22;8.10;81.20
13721;DHT22;6932;51.438;5.470;2022-12-10T12:33:00;8.10;81.30
13721;DHT22;6932;51.438;5.470;2022-12-10T12:38:31;8.10;81.30
13721;DHT22;6932;51.438;5.470;2022-12-10T12:41:21;8.20;81.40
13721;DHT22;6932;51.438;5.470;2022-12-10T12:46:44;8.20;81.30
13721;DHT22;6932;51.438;5.470;2022-12-10T12:49:27;8.20;81.30
13721;DHT22;6932;51.438;5.470;2022-12-10T12:52:28;8.20;81.30
13721;DHT22;6932;51.438;5.470;2022-12-10T12:55:24;8.20;81.20
13721;DHT22;6932;51.438;5.470;2022-12-10T13:00:48;8.20;81.20
13721;DHT22;6932;51.438;5.470;2022-12-10T13:05:46;8.20;81.10
13721;DHT22;6932;51.438;5.470;2022-12-10T13:14:53;8.30;81.30
13721;DHT22;6932;51.438;5.470;2022-12-10T13:17:28;8.20;81.30
13721;DHT22;6932;51.438;5.470;2022-12-10T13:20:32;8.30;81.40
13721;DHT22;6932;51.438;5.470;2022-12-10T13:23:01;8.30;81.30
13721;DHT22;6932;51.438;5.470;2022-12-10T13:28:48;8.30;81.30
13721;DHT22;6932;51.438;5.470;2022-12-10T13:36:33;8.30;81.40
13721;DHT22;6932;51.438;5.470;2022-12-10T13:39:34;8.30;81.40
13721;DHT22;6932;51.438;5.470;2022-12-10T13:45:05;8.30;81.40
13721;DHT22;6932;51.438;5.470;2022-12-10T13:47:54;8.30;81.50
13721;DHT22;6932;51.438;5.470;2022-12-10T14:07:14;8.30;81.50
13721;DHT22;6932;51.438;5.470;2022-12-10T14:10:01;7.90;82.20
13721;DHT22;6932;51.438;5.470;2022-12-10T14:12:36;8.00;83.00
13721;DHT22;6932;51.438;5.470;2022-12-10T14:15:17;8.20;82.60
13721;DHT22;6932;51.438;5.470;2022-12-10T14:18:00;8.30;82.20
13721;DHT22;6932;51.438;5.470;2022-12-10T14:20:49;8.40;82.00
13721;DHT22;6932;51.438;5.470;2022-12-10T14:23:45;8.50;81.70
13721;DHT22;6932;51.438;5.470;2022-12-10T14:26:22;8.50;81.60
13721;DHT22;6932;51.438;5.470;2022-12-10T14:29:18;8.50;81.50
13721;DHT22;6932;51.438;5.470;2022-12-10T14:31:48;8.50;81.50
13721;DHT22;6932;51.438;5.470;2022-12-10T14:34:18;8.50;81.50
13721;DHT22;6932;51.438;5.470;2022-12-10T14:36:51;8.50;81.40
13721;DHT22;6932;51.438;5.470;2022-12-10T14:39:22;8.50;81.40
13721;DHT22;6932;51.438;5.470;2022-12-10T14:41:55;8.50;81.50
13721;DHT22;6932;51.438;5.470;2022-12-10T14:44:23;8.50;81.50
13721;DHT22;6932;51.438;5.470;2022-12-10T14:46:50;8.50;81.50
13721;DHT22;6932;51.438;5.470;2022-12-10T14:49:25;8.50;81.40
13721;DHT22;6932;51.438;5.470;2022-12-10T14:51:52;8.50;81.40
13721;DHT22;6932;51.438;5.470;2022-12-10T14:54:26;8.50;81.40
13721;DHT22;6932;51.438;5.470;2022-12-10T14:57:01;8.50;81.40
13721;DHT22;6932;51.438;5.470;2022-12-10T15:00:14;8.50;81.50
13721;DHT22;6932;51.438;5.470;2022-12-10T15:03:07;8.50;81.50
13721;DHT22;6932;51.438;5.470;2022-12-10T15:05:34;8.60;81.50
13721;DHT22;6932;51.438;5.470;2022-12-10T15:08:07;8.50;81.50
13721;DHT22;6932;51.438;5.470;2022-12-10T15:10:42;8.50;81.50
13721;DHT22;6932;51.438;5.470;2022-12-10T15:13:42;8.50;81.60
13721;DHT22;6932;51.438;5.470;2022-12-10T15:16:18;8.50;81.60
13721;DHT22;6932;51.438;5.470;2022-12-10T15:22:00;8.50;81.50
13721;DHT22;6932;51.438;5.470;2022-12-10T15:24:42;8.50;81.50
13721;DHT22;6932;51.438;5.470;2022-12-10T15:27:19;8.50;81.60
13721;DHT22;6932;51.438;5.470;2022-12-10T15:29:47;8.50;81.60
13721;DHT22;6932;51.438;5.470;2022-12-10T15:32:19;8.50;81.60
13721;DHT22;6932;51.438;5.470;2022-12-10T15:34:57;8.50;81.60
13721;DHT22;6932;51.438;5.470;2022-12-10T15:37:27;8.50;81.60
13721;DHT22;6932;51.438;5.470;2022-12-10T15:40:03;8.50;81.60
13721;DHT22;6932;51.438;5.470;2022-12-10T15:47:49;8.50;81.80
13721;DHT22;6932;51.438;5.470;2022-12-10T15:50:15;8.50;81.80
13721;DHT22;6932;51.438;5.470;2022-12-10T15:52:41;8.50;81.80
13721;DHT22;6932;51.438;5.470;2022-12-10T15:55:07;8.50;81.70
13721;DHT22;6932;51.438;5.470;2022-12-10T15:57:36;8.50;81.80
13721;DHT22;6932;51.438;5.470;2022-12-10T16:00:11;8.60;81.90
13721;DHT22;6932;51.438;5.470;2022-12-10T16:03:01;8.50;81.80
13721;DHT22;6932;51.438;5.470;2022-12-10T16:05:35;8.50;81.80
13721;DHT22;6932;51.438;5.470;2022-12-10T16:08:23;8.60;81.90
13721;DHT22;6932;51.438;5.470;2022-12-10T16:10:54;8.50;82.50
13721;DHT22;6932;51.438;5.470;2022-12-10T16:15:58;8.60;82.00
13721;DHT22;6932;51.438;5.470;2022-12-10T16:18:28;8.60;82.00
13721;DHT22;6932;51.438;5.470;2022-12-10T16:20:53;8.60;82.00
13721;DHT22;6932;51.438;5.470;2022-12-10T16:23:19;8.60;82.10
13721;DHT22;6932;51.438;5.470;2022-12-10T16:25:45;8.60;82.10
13721;DHT22;6932;51.438;5.470;2022-12-10T16:28:17;8.50;82.10
13721;DHT22;6932;51.438;5.470;2022-12-10T16:30:46;8.60;82.10
13721;DHT22;6932;51.438;5.470;2022-12-10T16:33:18;8.60;82.20
13721;DHT22;6932;51.438;5.470;2022-12-10T16:35:46;8.50;82.10
13721;DHT22;6932;51.438;5.470;2022-12-10T16:38:13;8.60;82.20
13721;DHT22;6932;51.438;5.470;2022-12-10T16:40:40;8.60;82.10
13721;DHT22;6932;51.438;5.470;2022-12-10T16:43:22;8.60;82.20
13721;DHT22;6932;51.438;5.470;2022-12-10T16:45:51;8.50;82.20
13721;DHT22;6932;51.438;5.470;2022-12-10T16:48:17;8.60;82.30
13721;DHT22;6932;51.438;5.470;2022-12-10T16:50:45;8.60;82.30
13721;DHT22;6932;51.438;5.470;2022-12-10T16:55:37;8.60;82.40
13721;DHT22;6932;51.438;5.470;2022-12-10T16:58:04;8.60;82.40
13721;DHT22;6932;51.438;5.470;2022-12-10T17:00:32;8.60;82.40
13721;DHT22;6932;51.438;5.470;2022-12-10T17:02:58;8.60;82.40
13721;DHT22;6932;51.438;5.470;2022-12-10T17:05:35;8.60;82.40
13721;DHT22;6932;51.438;5.470;2022-12-10T17:08:04;8.60;82.40
13721;DHT22;6932;51.438;5.470;2022-12-10T17:10:30;8.60;82.40
13721;DHT22;6932;51.438;5.470;2022-12-10T17:13:15;8.60;82.40
13721;DHT22;6932;51.438;5.470;2022-12-10T17:15:42;8.60;82.40
13721;DHT22;6932;51.438;5.470;2022-12-10T17:18:13;8.60;82.40
13721;DHT22;6932;51.438;5.470;2022-12-10T17:20:41;8.60;82.40
13721;DHT22;6932;51.438;5.470;2022-12-10T17:23:07;8.60;82.40
13721;DHT22;6932;51.438;5.470;2022-12-10T17:25:32;8.60;82.40
13721;DHT22;6932;51.438;5.470;2022-12-10T17:27:59;8.60;82.40
13721;DHT22;6932;51.438;5.470;2022-12-10T17:30:24;8.60;82.50
13721;DHT22;6932;51.438;5.470;2022-12-10T17:32:50;8.60;82.50
13721;DHT22;6932;51.438;5.470;2022-12-10T17:35:18;8.60;82.40
13721;DHT22;6932;51.438;5.470;2022-12-10T17:37:45;8.60;82.40
13721;DHT22;6932;51.438;5.470;2022-12-10T17:40:14;8.60;82.40
13721;DHT22;6932;51.438;5.470;2022-12-10T17:42:42;8.60;82.40
13721;DHT22;6932;51.438;5.470;2022-12-10T17:45:13;8.60;82.50
13721;DHT22;6932;51.438;5.470;2022-12-10T17:47:40;8.60;82.60
13721;DHT22;6932;51.438;5.470;2022-12-10T17:50:24;8.60;82.60
13721;DHT22;6932;51.438;5.470;2022-12-10T17:52:55;8.60;82.60
13721;DHT22;6932;51.438;5.470;2022-12-10T17:55:23;8.60;82.60
13721;DHT22;6932;51.438;5.470;2022-12-10T17:57:50;8.60;82.60
13721;DHT22;6932;51.438;5.470;2022-12-10T18:00:19;8.60;82.70
13721;DHT22;6932;51.438;5.470;2022-12-10T18:02:47;8.60;83.30
13721;DHT22;6932;51.438;5.470;2022-12-10T18:05:14;8.60;82.70
13721;DHT22;6932;51.438;5.470;2022-12-10T18:07:40;8.60;82.80
13721;DHT22;6932;51.438;5.470;2022-12-10T18:10:45;8.60;82.80
13721;DHT22;6932;51.438;5.470;2022-12-10T18:13:05;8.60;82.80
13721;DHT22;6932;51.438;5.470;2022-12-10T18:15:31;8.60;82.90
13721;DHT22;6932;51.438;5.470;2022-12-10T18:17:59;8.60;83.00
13721;DHT22;6932;51.438;5.470;2022-12-10T18:20:34;8.60;83.00
13721;DHT22;6932;51.438;5.470;2022-12-10T18:23:04;8.60;83.00
13721;DHT22;6932;51.438;5.470;2022-12-10T18:25:31;8.70;83.10
13721;DHT22;6932;51.438;5.470;2022-12-10T18:30:53;8.70;83.10
13721;DHT22;6932;51.438;5.470;2022-12-10T18:33:21;8.70;83.10
13721;DHT22;6932;51.438;5.470;2022-12-10T18:35:47;8.70;83.10
13721;DHT22;6932;51.438;5.470;2022-12-10T18:38:15;8.70;83.20
13721;DHT22;6932;51.438;5.470;2022-12-10T18:40:42;8.70;83.20
13721;DHT22;6932;51.438;5.470;2022-12-10T18:43:08;8.70;83.20
13721;DHT22;6932;51.438;5.470;2022-12-10T18:45:35;8.70;83.20
13721;DHT22;6932;51.438;5.470;2022-12-10T18:48:01;8.70;83.30